Lynwood, Minnesota
Current Conditions -  °F | °C
As of 2:53 AM on Thursday 27 Nov 2014 (Local Time) from KHIB Reporting Station
Clear Clear  
Wind Chill: -25°   Ceiling: Unl
Heat Index: -8°   Visibility: 10mi
Dew Point: -14°   Wind: 9mph
Humidity: 75%   Direction: 320°NW
Pressure: 30.41"   Gusts: NA
Location:  47.4158°N, 93.0053°W
Report Text: KHIB 270853Z AUTO 32008KT 10SM CLR M22/M26 A3041 RMK AO2 SLP337 T12221256 53005
Loading
Personal Weather Stations






























Interactive Weather Map New forecast layout! Learn more

10-Day Weather Forecast

Advertisements
Track Severe Weather on mobile